Terminal Aerodrome Forecast
Issued by NWS

Home | Current Version | Previous Version | Graphics & Text | Print | Product List | Glossary On
Versions: 1 2 3 4 5 6 7 8 9 10 11 12 13 14 15 16 17 18 19 20
000
FTUS43 KABR 280520
TAFATY
TAF
KATY 280520Z 2806/2906 00000KT P6SM OVC040
     FM281000 04005KT 3SM BR OVC010
     FM281600 02008KT P6SM VCSH OVC010
     FM282200 35008KT P6SM VCSH BKN050
     FM290300 30005KT P6SM SCT070=

USA.gov is the U.S. government's official web portal to all federal, state and local government web resources and services.